createdAt,value
2023-02-08T00:00:39.858Z,-3.03
2023-02-08T00:01:24.425Z,-3.07
2023-02-08T00:02:06.143Z,-3.30
2023-02-08T00:02:48.160Z,-3.19
2023-02-08T00:03:29.838Z,-3.22
2023-02-08T00:04:11.511Z,-3.24
2023-02-08T00:04:53.168Z,-3.19
2023-02-08T00:05:34.939Z,-3.06
2023-02-08T00:06:17.634Z,-3.07
2023-02-08T00:06:59.382Z,-3.27
2023-02-08T00:07:41.083Z,-3.08
2023-02-08T00:08:22.808Z,-3.09
2023-02-08T00:09:04.536Z,-3.11
2023-02-08T00:09:46.252Z,-3.13
2023-02-08T00:10:28.121Z,-3.15
2023-02-08T00:11:10.756Z,-3.16
2023-02-08T00:11:52.529Z,-3.31
2023-02-08T00:12:34.647Z,-3.24
2023-02-08T00:13:16.846Z,-3.22
2023-02-08T00:13:58.541Z,-3.23
2023-02-08T00:14:40.305Z,-3.32
2023-02-08T00:15:22.396Z,-3.47
2023-02-08T00:16:04.662Z,-3.40
2023-02-08T00:16:46.638Z,-3.32
2023-02-08T00:17:28.747Z,-3.35
2023-02-08T00:18:10.750Z,-3.47
2023-02-08T00:18:52.446Z,-3.46
2023-02-08T00:19:34.087Z,-3.46
2023-02-08T00:20:15.966Z,-3.46
2023-02-08T00:20:57.743Z,-3.34
2023-02-08T00:21:39.564Z,-3.31
2023-02-08T00:22:21.320Z,-3.55
2023-02-08T00:23:02.989Z,-3.27
2023-02-08T00:23:44.927Z,-3.26
2023-02-08T00:24:26.684Z,-3.44
2023-02-08T00:25:08.857Z,-3.20
2023-02-08T00:25:50.736Z,-3.19
2023-02-08T00:26:32.526Z,-3.35
2023-02-08T00:27:14.271Z,-3.30
2023-02-08T00:27:55.918Z,-3.13
2023-02-08T00:28:37.833Z,-3.16
2023-02-08T00:29:19.675Z,-3.11
2023-02-08T00:30:01.464Z,-3.11
2023-02-08T00:30:46.095Z,-3.23
2023-02-08T00:31:29.753Z,-3.30
2023-02-08T00:32:11.533Z,-3.37
2023-02-08T00:32:53.332Z,-3.30
2023-02-08T00:33:35.198Z,-3.32
2023-02-08T00:34:16.904Z,-3.35
2023-02-08T00:34:59.026Z,-3.18
2023-02-08T00:35:42.171Z,-3.20
2023-02-08T00:36:23.824Z,-3.30
2023-02-08T00:37:06.500Z,-3.11
2023-02-08T00:37:48.191Z,-3.09
2023-02-08T00:38:29.895Z,-3.13
2023-02-08T00:39:11.501Z,-3.16
2023-02-08T00:39:53.946Z,-3.17
2023-02-08T00:40:35.731Z,-3.02
2023-02-08T00:41:17.457Z,-3.25
2023-02-08T00:42:01.362Z,-3.22
2023-02-08T00:42:43.387Z,-3.04
2023-02-08T00:43:25.344Z,-3.27
2023-02-08T00:44:07.027Z,-3.29
2023-02-08T00:44:50.337Z,-3.08
2023-02-08T00:45:33.000Z,-3.17
2023-02-08T00:46:14.696Z,-3.09
2023-02-08T00:46:56.355Z,-3.15
2023-02-08T00:47:38.099Z,-3.11
2023-02-08T00:48:19.753Z,-3.12
2023-02-08T00:49:01.470Z,-3.24
2023-02-08T00:49:43.141Z,-3.26
2023-02-08T00:50:25.211Z,-3.27
2023-02-08T00:51:11.869Z,-3.13
2023-02-08T00:51:53.482Z,-3.18
2023-02-08T00:52:35.142Z,-3.06
2023-02-08T00:53:16.779Z,-3.04
2023-02-08T00:53:58.473Z,-3.04
2023-02-08T00:54:41.918Z,-3.02
2023-02-08T00:55:23.653Z,-2.90
2023-02-08T00:56:06.397Z,-2.84
2023-02-08T00:56:48.224Z,-2.80
2023-02-08T00:57:32.147Z,-2.77
2023-02-08T00:58:13.812Z,-2.93
2023-02-08T00:58:55.531Z,-2.74
2023-02-08T00:59:37.324Z,-2.74
2023-02-08T01:00:19.217Z,-2.72
2023-02-08T01:01:01.747Z,-2.73
2023-02-08T01:01:46.039Z,-2.79
2023-02-08T01:02:28.161Z,-2.94
2023-02-08T01:03:10.298Z,-2.79
2023-02-08T01:03:51.933Z,-2.78
2023-02-08T01:04:33.890Z,-2.81
2023-02-08T01:05:15.555Z,-2.81
2023-02-08T01:06:01.568Z,-2.98
2023-02-08T01:06:43.199Z,-2.85
2023-02-08T01:07:26.563Z,-2.85
2023-02-08T01:08:08.246Z,-2.99
2023-02-08T01:08:49.931Z,-3.05
2023-02-08T01:09:32.432Z,-3.02
2023-02-08T01:10:14.208Z,-2.98
2023-02-08T01:11:07.072Z,-3.02
2023-02-08T01:11:48.712Z,-3.02
2023-02-08T01:12:30.743Z,-3.12
2023-02-08T01:13:12.429Z,-2.92
2023-02-08T01:13:57.346Z,-2.94
2023-02-08T01:14:40.043Z,-2.98
2023-02-08T01:15:21.668Z,-2.88
2023-02-08T01:16:18.091Z,-2.77
2023-02-08T01:17:00.015Z,-2.72
2023-02-08T01:17:41.666Z,-2.84
2023-02-08T01:18:23.824Z,-2.67
2023-02-08T01:19:06.301Z,-2.72
2023-02-08T01:19:50.305Z,-2.62
2023-02-08T01:20:36.318Z,-2.57
2023-02-08T01:21:21.804Z,-2.58
2023-02-08T01:22:03.582Z,-2.48
2023-02-08T01:22:45.199Z,-2.38
2023-02-08T01:23:26.853Z,-2.62
2023-02-08T01:24:09.658Z,-2.29
2023-02-08T01:24:51.368Z,-2.26
2023-02-08T01:25:33.035Z,-2.20
2023-02-08T01:26:16.716Z,-2.17
2023-02-08T01:27:00.248Z,-2.22
2023-02-08T01:27:42.223Z,-2.24
2023-02-08T01:28:23.876Z,-2.03
2023-02-08T01:29:05.720Z,-2.02
2023-02-08T01:29:47.374Z,-2.07
2023-02-08T01:30:29.082Z,-2.04
2023-02-08T01:31:14.181Z,-2.04
2023-02-08T01:31:55.947Z,-2.08
2023-02-08T01:32:37.631Z,-2.11
2023-02-08T01:33:19.443Z,-2.16
2023-02-08T01:34:01.827Z,-2.22
2023-02-08T01:34:44.280Z,-2.47
2023-02-08T01:35:26.193Z,-2.42
2023-02-08T01:36:09.029Z,-2.47
2023-02-08T01:36:50.733Z,-2.42
2023-02-08T01:37:32.421Z,-2.45
2023-02-08T01:38:14.021Z,-2.49
2023-02-08T01:38:56.173Z,-2.54
2023-02-08T01:39:39.565Z,-2.69
2023-02-08T01:40:21.242Z,-2.53
2023-02-08T01:41:04.449Z,-2.65
2023-02-08T01:41:46.768Z,-2.52
2023-02-08T01:42:29.743Z,-2.56
2023-02-08T01:43:27.793Z,-2.58
2023-02-08T01:44:12.113Z,-2.56
2023-02-08T01:45:15.567Z,-2.58
2023-02-08T01:45:57.775Z,-2.61
2023-02-08T01:46:44.803Z,-2.60
2023-02-08T01:47:27.432Z,-2.71
2023-02-08T01:48:13.623Z,-2.63
2023-02-08T01:48:59.477Z,-2.65
2023-02-08T01:49:41.128Z,-2.68
2023-02-08T01:50:30.113Z,-2.71
2023-02-08T01:51:17.905Z,-2.86
2023-02-08T01:52:08.772Z,-2.75
2023-02-08T01:52:51.249Z,-3.02
2023-02-08T01:53:34.619Z,-2.85
2023-02-08T01:54:19.274Z,-2.91
2023-02-08T01:55:08.627Z,-3.15
2023-02-08T01:55:53.613Z,-2.98
2023-02-08T01:56:39.086Z,-2.88
2023-02-08T01:57:22.025Z,-2.86
2023-02-08T01:58:07.902Z,-2.84
2023-02-08T01:58:54.040Z,-3.00
2023-02-08T02:00:04.396Z,-2.87
2023-02-08T02:00:55.708Z,-2.95
2023-02-08T02:01:39.173Z,-3.06
2023-02-08T02:02:22.887Z,-3.03
2023-02-08T02:03:06.069Z,-2.97
2023-02-08T02:03:47.776Z,-3.09
2023-02-08T02:04:30.514Z,-3.00
2023-02-08T02:05:13.457Z,-3.07
2023-02-08T02:06:10.101Z,-3.06
2023-02-08T02:06:59.155Z,-3.11
2023-02-08T02:07:41.023Z,-3.07
2023-02-08T02:08:22.777Z,-3.10
2023-02-08T02:09:16.705Z,-3.14
2023-02-08T02:10:01.788Z,-3.15
2023-02-08T02:10:43.913Z,-3.36
2023-02-08T02:11:25.702Z,-3.20
2023-02-08T02:12:09.452Z,-3.24
2023-02-08T02:12:52.217Z,-3.27
2023-02-08T02:13:36.985Z,-3.30
2023-02-08T02:14:18.872Z,-3.40
2023-02-08T02:15:01.919Z,-3.40
2023-02-08T02:15:46.081Z,-3.37
2023-02-08T02:16:27.840Z,-3.44
2023-02-08T02:17:12.509Z,-3.39
2023-02-08T02:17:56.702Z,-3.41
2023-02-08T02:18:38.632Z,-3.44
2023-02-08T02:19:40.200Z,-3.43
2023-02-08T02:20:38.408Z,-3.65
2023-02-08T02:21:32.313Z,-3.45
2023-02-08T02:22:29.081Z,-3.44
2023-02-08T02:23:28.613Z,-3.43
2023-02-08T02:24:39.380Z,-3.41
2023-02-08T02:25:58.630Z,-3.43
2023-02-08T02:27:37.304Z,-3.44
2023-02-08T02:29:13.158Z,-3.44
2023-02-08T02:30:00.770Z,-3.42
2023-02-08T02:31:07.815Z,-3.43
2023-02-08T02:32:04.703Z,-3.38
2023-02-08T02:33:23.060Z,-3.37
2023-02-08T02:34:31.936Z,-3.47
2023-02-08T02:35:52.346Z,-3.41
2023-02-08T02:36:52.589Z,-3.40
2023-02-08T02:37:53.129Z,-3.38
2023-02-08T02:38:47.014Z,-3.38
2023-02-08T02:39:41.354Z,-3.37
2023-02-08T02:40:38.149Z,-3.40
2023-02-08T02:42:00.782Z,-3.29
2023-02-08T02:43:25.723Z,-3.24
2023-02-08T02:44:17.117Z,-3.39
2023-02-08T02:45:11.037Z,-3.18
2023-02-08T02:46:00.517Z,-3.13
2023-02-08T02:46:47.099Z,-3.20
2023-02-08T02:47:43.229Z,-3.05
2023-02-08T02:48:37.073Z,-3.00
2023-02-08T02:49:27.465Z,-3.02
2023-02-08T02:50:14.949Z,-2.89
2023-02-08T02:51:15.151Z,-2.81
2023-02-08T02:52:06.737Z,-2.82
2023-02-08T02:53:18.002Z,-2.71
2023-02-08T02:54:06.691Z,-2.76
2023-02-08T02:54:53.213Z,-2.63
2023-02-08T02:55:41.087Z,-2.68
2023-02-08T02:56:27.123Z,-2.75
2023-02-08T02:57:12.638Z,-2.51
2023-02-08T02:57:57.849Z,-2.55
2023-02-08T02:58:41.065Z,-2.50
2023-02-08T02:59:23.052Z,-2.52
2023-02-08T03:00:10.280Z,-2.53
2023-02-08T03:00:57.867Z,-2.53
2023-02-08T03:01:40.289Z,-2.50
2023-02-08T03:02:22.180Z,-2.49
2023-02-08T03:03:03.826Z,-2.76
2023-02-08T03:03:45.507Z,-2.49
2023-02-08T03:04:33.305Z,-2.49
2023-02-08T03:05:15.069Z,-2.73
2023-02-08T03:06:07.033Z,-2.64
2023-02-08T03:06:48.923Z,-2.69
2023-02-08T03:07:52.216Z,-2.72
2023-02-08T03:08:52.458Z,-2.79
2023-02-08T03:10:03.260Z,-2.87
2023-02-08T03:11:02.896Z,-3.09
2023-02-08T03:12:01.949Z,-2.98
2023-02-08T03:12:56.279Z,-3.00
2023-02-08T03:13:59.615Z,-3.05
2023-02-08T03:15:15.422Z,-3.12
2023-02-08T03:16:26.637Z,-3.18
2023-02-08T03:17:35.326Z,-3.27
2023-02-08T03:18:16.876Z,-3.29
2023-02-08T03:19:22.405Z,-3.31
2023-02-08T03:20:17.731Z,-3.39
2023-02-08T03:21:05.248Z,-3.35
2023-02-08T03:21:55.507Z,-3.42
2023-02-08T03:22:50.811Z,-3.36
2023-02-08T03:23:41.397Z,-3.37
2023-02-08T03:24:29.515Z,-3.38
2023-02-08T03:25:21.248Z,-3.39
2023-02-08T03:26:15.214Z,-3.39
2023-02-08T03:27:08.658Z,-3.33
2023-02-08T03:28:07.513Z,-3.31
2023-02-08T03:29:30.711Z,-3.31
2023-02-08T03:30:17.277Z,-3.51
2023-02-08T03:31:13.033Z,-3.27
2023-02-08T03:32:06.638Z,-3.28
2023-02-08T03:33:05.021Z,-3.25
2023-02-08T03:33:54.151Z,-3.24
2023-02-08T03:34:41.790Z,-3.23
2023-02-08T03:35:37.910Z,-3.29
2023-02-08T03:36:51.725Z,-3.22
2023-02-08T03:37:38.644Z,-3.16
2023-02-08T03:38:34.988Z,-3.27
2023-02-08T03:39:23.886Z,-3.19
2023-02-08T03:40:46.889Z,-3.13
2023-02-08T03:41:34.932Z,-3.25
2023-02-08T03:42:23.113Z,-3.32
2023-02-08T03:43:12.979Z,-3.17
2023-02-08T03:44:00.252Z,-3.46
2023-02-08T03:44:47.605Z,-3.15
2023-02-08T03:45:44.617Z,-3.20
2023-02-08T03:46:34.987Z,-3.13
2023-02-08T03:47:22.154Z,-3.13
2023-02-08T03:48:08.779Z,-3.35
2023-02-08T03:48:57.172Z,-3.14
2023-02-08T03:49:39.400Z,-3.33
2023-02-08T03:50:22.490Z,-3.19
2023-02-08T03:51:05.996Z,-3.20
2023-02-08T03:51:49.226Z,-3.22
2023-02-08T03:52:32.689Z,-3.29
2023-02-08T03:53:19.169Z,-3.24
2023-02-08T03:54:04.781Z,-3.34
2023-02-08T03:55:13.356Z,-3.35
2023-02-08T03:56:03.643Z,-3.31
2023-02-08T03:56:52.456Z,-3.26
2023-02-08T03:57:41.329Z,-3.23
2023-02-08T03:58:32.412Z,-3.22
2023-02-08T03:59:20.169Z,-3.23
2023-02-08T04:00:14.511Z,-3.25
2023-02-08T04:01:03.900Z,-3.47
2023-02-08T04:01:52.230Z,-3.37
2023-02-08T04:02:39.799Z,-3.38
2023-02-08T04:03:27.900Z,-3.54
2023-02-08T04:04:11.481Z,-3.34
2023-02-08T04:04:55.470Z,-3.34
2023-02-08T04:05:37.186Z,-3.48
2023-02-08T04:06:18.815Z,-3.36
2023-02-08T04:07:00.549Z,-3.34
2023-02-08T04:07:42.183Z,-3.39
2023-02-08T04:08:25.740Z,-3.35
2023-02-08T04:09:07.685Z,-3.43
2023-02-08T04:09:49.375Z,-3.36
2023-02-08T04:10:31.113Z,-3.34
2023-02-08T04:11:12.773Z,-3.47
2023-02-08T04:11:54.682Z,-3.50
2023-02-08T04:12:36.498Z,-3.30
2023-02-08T04:13:18.287Z,-3.26
2023-02-08T04:13:59.967Z,-3.43
2023-02-08T04:14:41.642Z,-3.20
2023-02-08T04:15:23.410Z,-3.13
2023-02-08T04:16:05.588Z,-3.17
2023-02-08T04:16:47.307Z,-3.15
2023-02-08T04:17:29.027Z,-3.28
2023-02-08T04:18:10.784Z,-3.17
2023-02-08T04:18:52.398Z,-3.18
2023-02-08T04:19:34.092Z,-3.55
2023-02-08T04:20:15.786Z,-3.29
2023-02-08T04:20:57.567Z,-3.39
2023-02-08T04:21:39.223Z,-3.28
2023-02-08T04:22:20.866Z,-3.30
2023-02-08T04:23:02.481Z,-3.37
2023-02-08T04:23:44.092Z,-3.50
2023-02-08T04:24:25.854Z,-3.33
2023-02-08T04:25:07.656Z,-3.48
2023-02-08T04:25:49.268Z,-3.36
2023-02-08T04:26:30.898Z,-3.33
2023-02-08T04:27:12.811Z,-3.28
2023-02-08T04:27:54.969Z,-3.27
2023-02-08T04:28:36.643Z,-3.44
2023-02-08T04:29:18.479Z,-3.18
2023-02-08T04:30:00.137Z,-3.22
2023-02-08T04:30:42.014Z,-3.24
2023-02-08T04:31:23.980Z,-3.36
2023-02-08T04:32:08.173Z,-3.17
2023-02-08T04:32:49.931Z,-3.06
2023-02-08T04:33:31.603Z,-3.04
2023-02-08T04:34:13.329Z,-3.20
2023-02-08T04:34:55.006Z,-3.25
2023-02-08T04:35:36.683Z,-3.00
2023-02-08T04:36:18.800Z,-3.07
2023-02-08T04:37:00.638Z,-3.05
2023-02-08T04:37:42.243Z,-3.17
2023-02-08T04:38:23.891Z,-2.99
2023-02-08T04:39:05.804Z,-3.03
2023-02-08T04:39:47.499Z,-3.03
2023-02-08T04:40:29.356Z,-3.12
2023-02-08T04:41:11.411Z,-3.05
2023-02-08T04:41:53.070Z,-3.10
2023-02-08T04:42:35.198Z,-3.31
2023-02-08T04:43:16.853Z,-3.39
2023-02-08T04:43:58.574Z,-3.16
2023-02-08T04:44:40.350Z,-3.22
2023-02-08T04:45:22.065Z,-3.24
2023-02-08T04:46:04.140Z,-3.38
2023-02-08T04:46:45.865Z,-3.24
2023-02-08T04:47:27.447Z,-3.22
2023-02-08T04:48:10.478Z,-3.24
2023-02-08T04:48:53.460Z,-3.26
2023-02-08T04:49:35.127Z,-3.28
2023-02-08T04:50:17.013Z,-3.40
2023-02-08T04:50:59.176Z,-3.29
2023-02-08T04:51:40.901Z,-3.31
2023-02-08T04:52:22.848Z,-3.29
2023-02-08T04:53:04.507Z,-3.30
2023-02-08T04:53:46.245Z,-3.41
2023-02-08T04:54:28.137Z,-3.21
2023-02-08T04:55:09.884Z,-3.19
2023-02-08T04:55:52.157Z,-3.34
2023-02-08T04:56:33.806Z,-3.23
2023-02-08T04:57:15.665Z,-3.23
2023-02-08T04:57:57.901Z,-3.24
2023-02-08T04:58:39.569Z,-3.21
2023-02-08T04:59:21.224Z,-3.18
2023-02-08T05:00:03.974Z,-3.20
2023-02-08T05:00:46.089Z,-3.20
2023-02-08T05:01:27.762Z,-3.18
2023-02-08T05:02:09.880Z,-3.30
2023-02-08T05:02:57.089Z,-3.18
2023-02-08T05:03:38.847Z,-3.16
2023-02-08T05:04:20.600Z,-3.14
2023-02-08T05:05:02.321Z,-3.31
2023-02-08T05:05:44.057Z,-3.06
2023-02-08T05:06:25.850Z,-3.17
2023-02-08T05:07:07.497Z,-2.96
2023-02-08T05:07:49.211Z,-2.90
2023-02-08T05:08:30.902Z,-3.00
2023-02-08T05:09:12.515Z,-2.82
2023-02-08T05:09:54.143Z,-2.79
2023-02-08T05:10:35.797Z,-2.77
2023-02-08T05:11:25.456Z,-2.73
2023-02-08T05:12:07.186Z,-2.71
2023-02-08T05:12:48.863Z,-2.70
2023-02-08T05:13:30.939Z,-2.85
2023-02-08T05:14:12.605Z,-2.67
2023-02-08T05:14:54.271Z,-2.90
2023-02-08T05:15:35.950Z,-2.67
2023-02-08T05:16:17.671Z,-2.64
2023-02-08T05:16:59.420Z,-2.75
2023-02-08T05:17:41.202Z,-2.64
2023-02-08T05:18:22.908Z,-2.66
2023-02-08T05:19:04.564Z,-2.86
2023-02-08T05:19:46.238Z,-2.85
2023-02-08T05:20:28.295Z,-2.78
2023-02-08T05:21:10.541Z,-2.67
2023-02-08T05:21:52.267Z,-2.89
2023-02-08T05:22:34.210Z,-2.69
2023-02-08T05:23:15.860Z,-2.81
2023-02-08T05:23:57.508Z,-2.84
2023-02-08T05:24:39.195Z,-2.63
2023-02-08T05:25:20.934Z,-2.63
2023-02-08T05:26:10.303Z,-2.69
2023-02-08T05:26:52.171Z,-2.61
2023-02-08T05:27:34.964Z,-2.74
2023-02-08T05:28:17.355Z,-2.73
2023-02-08T05:28:59.126Z,-2.72
2023-02-08T05:29:40.810Z,-2.73
2023-02-08T05:30:22.631Z,-2.59
2023-02-08T05:31:24.940Z,-2.57
2023-02-08T05:32:07.407Z,-2.68
2023-02-08T05:32:49.334Z,-2.59
2023-02-08T05:33:31.005Z,-2.63
2023-02-08T05:34:12.712Z,-2.61
2023-02-08T05:34:54.460Z,-2.61
2023-02-08T05:35:36.161Z,-2.61
2023-02-08T05:36:19.015Z,-2.75
2023-02-08T05:37:00.656Z,-2.69
2023-02-08T05:37:42.421Z,-2.77
2023-02-08T05:38:24.025Z,-2.60
2023-02-08T05:39:06.072Z,-2.60
2023-02-08T05:39:47.714Z,-2.73
2023-02-08T05:40:29.553Z,-2.76
2023-02-08T05:41:11.258Z,-2.65
2023-02-08T05:41:52.924Z,-2.66
2023-02-08T05:42:34.601Z,-2.80
2023-02-08T05:43:16.433Z,-2.81
2023-02-08T05:43:58.223Z,-2.73
2023-02-08T05:44:39.976Z,-2.83
2023-02-08T05:45:21.903Z,-2.72
2023-02-08T05:46:03.703Z,-2.82
2023-02-08T05:46:45.345Z,-2.71
2023-02-08T05:47:27.123Z,-2.73
2023-02-08T05:48:08.739Z,-2.83
2023-02-08T05:48:50.403Z,-2.85
2023-02-08T05:49:32.179Z,-2.73
2023-02-08T05:50:14.486Z,-2.74
2023-02-08T05:50:56.829Z,-2.87
2023-02-08T05:51:38.592Z,-2.99
2023-02-08T05:52:20.278Z,-2.86
2023-02-08T05:53:02.074Z,-2.91
2023-02-08T05:53:45.341Z,-2.79
2023-02-08T05:54:27.100Z,-2.73
2023-02-08T05:55:08.994Z,-2.72
2023-02-08T05:55:50.925Z,-2.76
2023-02-08T05:56:33.081Z,-2.70
2023-02-08T05:57:14.892Z,-2.73
2023-02-08T05:57:56.551Z,-2.71
2023-02-08T05:58:38.306Z,-2.87
2023-02-08T05:59:19.999Z,-2.74
2023-02-08T06:00:01.727Z,-2.75
2023-02-08T06:00:43.805Z,-2.82
2023-02-08T06:01:25.479Z,-2.76
2023-02-08T06:02:07.240Z,-2.89
2023-02-08T06:02:49.107Z,-2.71
2023-02-08T06:03:30.812Z,-2.70
2023-02-08T06:04:12.732Z,-2.65
2023-02-08T06:04:54.474Z,-2.68
2023-02-08T06:05:38.640Z,-2.56
2023-02-08T06:06:20.964Z,-2.50
2023-02-08T06:07:02.689Z,-2.40
2023-02-08T06:07:44.370Z,-2.39
2023-02-08T06:08:26.067Z,-2.31
2023-02-08T06:09:07.775Z,-2.08
2023-02-08T06:09:49.430Z,-1.95
2023-02-08T06:10:31.141Z,-1.90
2023-02-08T06:11:13.395Z,-1.91
2023-02-08T06:11:55.031Z,-2.10
2023-02-08T06:12:36.698Z,-2.04
2023-02-08T06:13:18.340Z,-2.15
2023-02-08T06:14:00.172Z,-2.13
2023-02-08T06:14:41.970Z,-2.13
2023-02-08T06:15:23.683Z,-2.12
2023-02-08T06:16:06.721Z,-2.06
2023-02-08T06:16:48.590Z,-2.11
2023-02-08T06:17:30.344Z,-2.09
2023-02-08T06:18:12.022Z,-1.89
2023-02-08T06:18:53.673Z,-1.97
2023-02-08T06:19:35.307Z,-1.98
2023-02-08T06:20:17.250Z,-2.02
2023-02-08T06:20:58.936Z,-2.13
2023-02-08T06:21:42.138Z,-2.08
2023-02-08T06:22:24.530Z,-2.13
2023-02-08T06:23:06.221Z,-2.33
2023-02-08T06:23:47.893Z,-2.32
2023-02-08T06:24:29.681Z,-2.27
2023-02-08T06:25:11.471Z,-2.40
2023-02-08T06:25:53.569Z,-2.36
2023-02-08T06:26:35.325Z,-2.59
2023-02-08T06:27:17.288Z,-2.63
2023-02-08T06:27:58.947Z,-2.48
2023-02-08T06:28:40.664Z,-2.49
2023-02-08T06:29:22.452Z,-2.55
2023-02-08T06:30:04.460Z,-2.45
2023-02-08T06:30:46.322Z,-2.45
2023-02-08T06:31:28.104Z,-2.46
2023-02-08T06:32:11.427Z,-2.35
2023-02-08T06:32:53.132Z,-2.33
2023-02-08T06:33:34.940Z,-2.51
2023-02-08T06:34:16.678Z,-2.33
2023-02-08T06:34:58.388Z,-2.50
2023-02-08T06:35:40.022Z,-2.33
2023-02-08T06:36:21.744Z,-2.31
2023-02-08T06:37:05.588Z,-2.34
2023-02-08T06:37:47.264Z,-2.53
2023-02-08T06:38:28.956Z,-2.33
2023-02-08T06:39:10.573Z,-2.32
2023-02-08T06:39:52.214Z,-2.37
2023-02-08T06:40:33.834Z,-2.34
2023-02-08T06:41:15.617Z,-2.41
2023-02-08T06:41:57.631Z,-2.31
2023-02-08T06:42:39.318Z,-2.28
2023-02-08T06:43:21.016Z,-2.46
2023-02-08T06:44:02.791Z,-2.28
2023-02-08T06:44:54.476Z,-2.33
2023-02-08T06:45:36.579Z,-2.40
2023-02-08T06:46:18.351Z,-2.29
2023-02-08T06:47:00.100Z,-2.34
2023-02-08T06:47:42.116Z,-2.15
2023-02-08T06:48:23.909Z,-2.16
2023-02-08T06:49:05.610Z,-2.00
2023-02-08T06:49:47.280Z,-1.97
2023-02-08T06:50:28.957Z,-1.96
2023-02-08T06:51:10.572Z,-1.98
2023-02-08T06:51:52.235Z,-1.87
2023-02-08T06:52:33.912Z,-1.89
2023-02-08T06:53:15.595Z,-2.05
2023-02-08T06:53:57.235Z,-2.03
2023-02-08T06:54:38.885Z,-2.07
2023-02-08T06:55:20.529Z,-2.28
2023-02-08T06:56:02.264Z,-2.30
2023-02-08T06:56:44.002Z,-2.17
2023-02-08T06:57:25.965Z,-2.42
2023-02-08T06:58:07.641Z,-2.23
2023-02-08T06:58:49.319Z,-2.18
2023-02-08T06:59:31.097Z,-2.16
2023-02-08T07:00:13.276Z,-2.05
2023-02-08T07:00:54.935Z,-2.04
2023-02-08T07:01:36.805Z,-2.01
2023-02-08T07:02:20.917Z,-1.98
2023-02-08T07:03:02.626Z,-2.02
2023-02-08T07:03:44.363Z,-2.20
2023-02-08T07:04:26.178Z,-2.07
2023-02-08T07:05:08.076Z,-2.34
2023-02-08T07:06:04.240Z,-2.15
2023-02-08T07:06:52.462Z,-2.15
2023-02-08T07:07:34.211Z,-2.17
2023-02-08T07:08:16.071Z,-2.21
2023-02-08T07:08:57.801Z,-2.39
2023-02-08T07:09:39.826Z,-2.26
2023-02-08T07:10:21.675Z,-2.26
2023-02-08T07:11:11.640Z,-2.40
2023-02-08T07:11:53.407Z,-2.31
2023-02-08T07:12:36.463Z,-2.21
2023-02-08T07:13:18.181Z,-2.33
2023-02-08T07:14:00.003Z,-2.20
2023-02-08T07:14:43.496Z,-2.24
2023-02-08T07:15:25.144Z,-2.39
2023-02-08T07:16:08.307Z,-2.24
2023-02-08T07:16:49.983Z,-2.31
2023-02-08T07:17:31.713Z,-2.47
2023-02-08T07:18:13.406Z,-2.26
2023-02-08T07:18:55.119Z,-2.26
2023-02-08T07:19:47.370Z,-2.33
2023-02-08T07:20:48.863Z,-2.25
2023-02-08T07:21:30.651Z,-2.34
2023-02-08T07:22:12.423Z,-2.42
2023-02-08T07:22:54.237Z,-2.32
2023-02-08T07:23:35.975Z,-2.41
2023-02-08T07:24:17.739Z,-2.39
2023-02-08T07:24:59.497Z,-2.29
2023-02-08T07:25:41.135Z,-2.27
2023-02-08T07:26:22.798Z,-2.27
2023-02-08T07:27:05.706Z,-2.25
2023-02-08T07:27:47.413Z,-2.21
2023-02-08T07:28:29.519Z,-2.18
2023-02-08T07:29:11.216Z,-2.23
2023-02-08T07:29:53.003Z,-2.22
2023-02-08T07:30:34.716Z,-2.24
2023-02-08T07:31:18.080Z,-2.15
2023-02-08T07:32:01.260Z,-2.23
2023-02-08T07:32:43.013Z,-2.34
2023-02-08T07:33:25.515Z,-2.20
2023-02-08T07:34:07.281Z,-2.39
2023-02-08T07:34:48.954Z,-2.28
2023-02-08T07:35:30.607Z,-2.17
2023-02-08T07:36:12.543Z,-2.14
2023-02-08T07:36:54.213Z,-2.28
2023-02-08T07:37:35.860Z,-2.14
2023-02-08T07:38:20.638Z,-2.12
2023-02-08T07:39:02.968Z,-2.13
2023-02-08T07:39:44.656Z,-2.15
2023-02-08T07:40:26.427Z,-2.17
2023-02-08T07:41:11.056Z,-2.31
2023-02-08T07:41:53.126Z,-2.41
2023-02-08T07:42:35.225Z,-2.12
2023-02-08T07:43:27.358Z,-2.10
2023-02-08T07:44:13.897Z,-2.30
2023-02-08T07:44:55.562Z,-2.13
2023-02-08T07:45:38.741Z,-2.20
2023-02-08T07:46:21.852Z,-2.01
2023-02-08T07:47:04.534Z,-2.14
2023-02-08T07:47:46.651Z,-2.09
2023-02-08T07:48:28.411Z,-2.04
2023-02-08T07:49:10.189Z,-2.03
2023-02-08T07:49:51.841Z,-2.23
2023-02-08T07:50:33.612Z,-2.05
2023-02-08T07:51:15.662Z,-2.06
2023-02-08T07:51:57.292Z,-2.02
2023-02-08T07:52:38.962Z,-2.01
2023-02-08T07:53:20.641Z,-2.00
2023-02-08T07:54:02.762Z,-2.10
2023-02-08T07:54:44.512Z,-2.00
2023-02-08T07:55:27.558Z,-2.00
2023-02-08T07:56:10.449Z,-1.99
2023-02-08T07:56:53.036Z,-2.11
2023-02-08T07:57:35.511Z,-1.95
2023-02-08T07:58:17.215Z,-1.94
2023-02-08T07:58:59.141Z,-2.04
2023-02-08T07:59:40.845Z,-1.84
2023-02-08T08:00:22.900Z,-1.79
2023-02-08T08:01:19.683Z,-2.02
2023-02-08T08:02:03.768Z,-1.75
2023-02-08T08:02:56.111Z,-1.77
2023-02-08T08:03:38.200Z,-1.90
2023-02-08T08:04:20.162Z,-1.73
2023-02-08T08:05:01.886Z,-1.72
2023-02-08T08:05:43.590Z,-1.86
2023-02-08T08:06:25.277Z,-1.71
2023-02-08T08:07:06.940Z,-1.90
2023-02-08T08:07:48.603Z,-1.81
2023-02-08T08:08:30.464Z,-1.76
2023-02-08T08:09:12.304Z,-1.66
2023-02-08T08:09:54.076Z,-1.68
2023-02-08T08:10:36.084Z,-1.87
2023-02-08T08:11:20.025Z,-1.65
2023-02-08T08:12:02.713Z,-1.67
2023-02-08T08:12:44.434Z,-1.62
2023-02-08T08:13:26.166Z,-1.51
2023-02-08T08:14:07.882Z,-1.29
2023-02-08T08:14:50.136Z,-1.20
2023-02-08T08:15:31.936Z,-1.17
2023-02-08T08:16:13.669Z,-1.20
2023-02-08T08:16:55.440Z,-1.00
2023-02-08T08:17:37.196Z,-1.14
2023-02-08T08:18:18.906Z,-1.01
2023-02-08T08:19:00.568Z,-1.00
2023-02-08T08:19:42.326Z,-0.93
2023-02-08T08:20:24.301Z,-0.83
2023-02-08T08:21:06.586Z,-0.92
2023-02-08T08:21:48.281Z,-0.91
2023-02-08T08:22:30.001Z,-0.59
2023-02-08T08:23:11.701Z,-0.52
2023-02-08T08:23:55.406Z,-0.45
2023-02-08T08:24:37.540Z,-0.39
2023-02-08T08:25:19.400Z,-0.45
2023-02-08T08:26:01.085Z,-0.19
2023-02-08T08:26:42.921Z,-0.15
2023-02-08T08:27:24.612Z,-0.12
2023-02-08T08:28:06.328Z,0.00
2023-02-08T08:28:49.044Z,0.03
2023-02-08T08:29:34.899Z,0.10
2023-02-08T08:30:17.294Z,0.09
2023-02-08T08:30:59.218Z,0.26
2023-02-08T08:31:42.885Z,0.28
2023-02-08T08:32:24.584Z,0.16
2023-02-08T08:33:06.974Z,0.39
2023-02-08T08:33:49.517Z,0.40
2023-02-08T08:34:31.665Z,0.52
2023-02-08T08:35:13.573Z,0.56
2023-02-08T08:35:55.282Z,0.73
2023-02-08T08:36:37.022Z,1.02
2023-02-08T08:37:18.782Z,1.17
2023-02-08T08:38:00.485Z,1.15
2023-02-08T08:38:42.262Z,1.10
2023-02-08T08:39:24.692Z,1.29
2023-02-08T08:40:07.899Z,1.35
2023-02-08T08:40:49.532Z,1.38
2023-02-08T08:41:31.304Z,1.42
2023-02-08T08:42:13.091Z,1.49
2023-02-08T08:42:54.777Z,1.41
2023-02-08T08:43:36.491Z,1.54
2023-02-08T08:44:18.185Z,1.44
2023-02-08T08:44:59.988Z,1.45
2023-02-08T08:45:41.700Z,1.38
2023-02-08T08:46:23.477Z,1.44
2023-02-08T08:47:06.164Z,1.53
2023-02-08T08:47:47.872Z,1.58
2023-02-08T08:48:29.719Z,1.58
2023-02-08T08:49:11.530Z,1.69
2023-02-08T08:49:53.327Z,1.63
2023-02-08T08:50:34.965Z,1.82
2023-02-08T08:51:16.651Z,1.69
2023-02-08T08:51:58.438Z,1.96
2023-02-08T08:52:40.789Z,1.94
2023-02-08T08:53:23.146Z,1.95
2023-02-08T08:54:05.621Z,1.91
2023-02-08T08:54:47.393Z,1.78
2023-02-08T08:55:29.152Z,1.90
2023-02-08T08:56:11.106Z,2.05
2023-02-08T08:56:52.852Z,2.17
2023-02-08T08:57:34.886Z,2.23
2023-02-08T08:58:16.916Z,2.27
2023-02-08T08:58:59.055Z,2.21
2023-02-08T08:59:40.970Z,2.26
2023-02-08T09:00:23.084Z,2.25
2023-02-08T09:01:04.935Z,2.37
2023-02-08T09:01:46.764Z,2.26
2023-02-08T09:02:28.776Z,2.00
2023-02-08T09:03:10.672Z,2.15
2023-02-08T09:03:52.485Z,2.05
2023-02-08T09:04:34.374Z,1.97
2023-02-08T09:05:16.073Z,2.13
2023-02-08T09:05:57.825Z,2.19
2023-02-08T09:06:39.541Z,2.28
2023-02-08T09:07:21.313Z,2.41
2023-02-08T09:08:03.520Z,2.50
2023-02-08T09:08:45.146Z,2.58
2023-02-08T09:09:26.874Z,2.71
2023-02-08T09:10:08.868Z,2.79
2023-02-08T09:10:50.851Z,2.68
2023-02-08T09:11:33.301Z,2.74
2023-02-08T09:12:15.980Z,2.69
2023-02-08T09:12:58.909Z,2.90
2023-02-08T09:13:41.521Z,2.91
2023-02-08T09:14:23.193Z,2.84
2023-02-08T09:15:05.370Z,3.09
2023-02-08T09:15:48.335Z,3.05
2023-02-08T09:16:30.298Z,3.16
2023-02-08T09:17:12.292Z,3.31
2023-02-08T09:17:53.942Z,3.36
2023-02-08T09:18:35.778Z,3.39
2023-02-08T09:19:17.446Z,3.18
2023-02-08T09:19:59.188Z,3.11
2023-02-08T09:20:43.420Z,3.13
2023-02-08T09:21:25.494Z,2.99
2023-02-08T09:22:07.563Z,3.00
2023-02-08T09:22:49.500Z,2.62
2023-02-08T09:23:31.218Z,2.87
2023-02-08T09:24:13.120Z,2.89
2023-02-08T09:24:54.876Z,3.02
2023-02-08T09:25:37.451Z,2.93
2023-02-08T09:26:20.338Z,2.89
2023-02-08T09:27:02.114Z,2.81
2023-02-08T09:27:43.807Z,2.87
2023-02-08T09:28:26.277Z,2.70
2023-02-08T09:29:08.102Z,2.95
2023-02-08T09:29:49.773Z,2.94
2023-02-08T09:30:31.839Z,2.95
2023-02-08T09:31:16.317Z,3.11
2023-02-08T09:31:58.347Z,3.29
2023-02-08T09:32:40.155Z,3.39
2023-02-08T09:33:21.782Z,3.30
2023-02-08T09:34:04.835Z,3.40
2023-02-08T09:34:46.981Z,3.55